EL BRULL (Osona)





Hora UTC 22:30
Temperatura 21.7 ºC
Humedad 68.5 %
Presión 1019.1 hPa
Pluja 0.0 mm
Velocidad viento 2.3 km/h
Dirección viento ESE
Radiación solar 0.0 W/m²

Datos diarios 2024-07-24



Hora UTC (invierno +1h; verano +2h)
Temperatura (ºC) Humedad (%) Presión (hPa) Velocidad viento (km/h) Precipitación (mm) Radiación solar (W/m²)
Hora UTC Aire Humedad Presión Vel. Dir. Vel. Max Dir. Intent. máx 5 min. Rad. Sol.
00:10 21.7 68.9 1022.6 2.3 ESE 6.9 SE 0.0 0.0
00:20 21.9 64.5 1022.6 3.7 ESE 11.4 SE 0.0 0.0
00:30 22.0 62.7 1022.6 1.3 NE 4.8 SE 0.0 0.0
00:40 22.0 61.9 1022.6 1.8 ENE 4.8 E 0.0 0.0
00:50 22.0 61.0 1022.5 2.7 E 4.7 ENE 0.0 0.0
01:00 22.1 60.2 1022.5 1.3 E 4.0 NW 0.0 0.0
01:10 21.5 65.4 1022.4 3.0 NNW 4.7 NNW 0.0 0.0
01:20 21.3 70.5 1022.3 2.3 NW 3.8 NW 0.0 0.0
01:30 21.3 71.6 1022.4 1.7 W 3.1 WNW 0.0 0.0
01:40 21.2 71.5 1022.4 1.6 NW 2.9 NW 0.0 0.0
01:50 21.1 71.7 1022.3 0.9 WNW 2.4 NNW 0.0 0.0
02:00 21.2 69.3 1022.3 0.3 SW 2.2 SW 0.0 0.0
02:10 21.0 67.7 1022.2 0.2 S 2.5 S 0.0 0.0
02:20 21.1 67.3 1022.1 1.6 SW 3.4 WSW 0.0 0.0
02:30 21.1 68.7 1022.1 2.3 SSW 5.1 SW 0.0 0.0
02:40 20.9 67.8 1022.0 3.8 SSE 6.8 SSE 0.0 0.0
02:50 20.6 67.9 1021.9 5.3 SSE 8.7 SSE 0.0 0.0
03:00 20.6 67.9 1021.8 7.7 SSE 11.8 SSE 0.0 0.0
03:10 21.1 66.0 1021.6 11.4 SSE 18.9 SSE 0.0 0.0
03:20 22.0 62.0 1021.6 12.8 SSE 21.8 SSE 0.0 0.0
03:30 22.1 60.9 1021.6 8.6 SSE 17.3 S 0.0 0.0
03:40 22.0 60.6 1021.7 7.9 S 14.7 SSE 0.0 0.0
03:50 22.2 59.7 1021.7 7.0 S 12.0 S 0.0 0.0
04:00 21.9 60.3 1021.7 5.9 SSE 12.7 SSW 0.0 0.0
04:10 21.9 59.1 1021.7 7.9 SSE 13.2 SE 0.0 0.0
04:20 21.7 58.0 1021.7 10.0 SSE 17.6 SSE 0.0 0.2
04:30 22.0 54.9 1021.7 10.4 SSE 18.6 SSE 0.0 1.0
04:40 22.2 51.9 1021.7 9.1 SSE 14.5 SE 0.0 3.1
04:50 21.7 55.1 1021.8 5.6 S 11.9 SSE 0.0 6.9
05:00 20.9 60.0 1021.8 5.6 SSW 8.1 SSW 0.0 11.0
05:10 20.5 62.5 1021.7 6.5 S 10.0 SSW 0.0 14.8
05:20 20.2 65.9 1021.7 6.4 SSW 10.2 SSW 0.0 18.3
05:30 19.9 69.0 1021.7 3.3 S 6.9 S 0.0 21.5
05:40 19.8 69.7 1021.7 5.4 S 9.8 S 0.0 38.5
05:50 20.3 64.4 1021.7 7.4 SSE 11.5 S 0.0 50.8
06:00 21.4 56.0 1021.7 8.9 SSE 16.3 S 0.0 38.8
06:10 22.4 50.5 1021.7 9.4 SSE 16.7 S 0.0 41.0
06:20 22.3 52.7 1021.7 7.1 S 11.3 SSW 0.0 210.5
06:30 22.5 55.9 1021.8 7.0 SSW 11.4 S 0.0 248.5
06:40 22.8 56.6 1021.8 8.0 SSW 14.5 S 0.0 280.5
06:50 23.3 55.2 1021.8 7.7 SSW 12.3 SSW 0.0 312.6
07:00 23.6 55.2 1021.7 7.4 S 12.7 SSW 0.0 344.9
07:10 23.9 54.1 1021.8 8.8 S 15.1 SSW 0.0 377.3
07:20 24.5 51.7 1021.8 8.6 SSW 14.5 SSW 0.0 409.6
07:30 25.0 50.1 1021.9 8.7 SSW 15.5 S 0.0 441.4
07:40 25.4 48.4 1021.9 8.2 SSW 15.5 SW 0.0 472.4
07:50 25.6 47.3 1021.8 9.6 SSW 16.6 S 0.0 503.3
08:00 26.1 45.2 1021.8 9.7 SSW 18.9 SSW 0.0 534.0
08:10 26.2 44.3 1021.8 9.5 SSW 19.3 SSW 0.0 562.8
08:20 26.5 43.0 1021.8 9.1 S 20.7 S 0.0 591.2
08:30 26.7 42.3 1021.8 10.2 S 19.3 S 0.0 618.3
08:40 26.9 42.2 1021.8 10.1 SSW 20.9 SSW 0.0 645.4
08:50 27.1 41.6 1021.8 10.6 SSW 22.3 SSW 0.0 671.5
09:00 27.2 41.1 1021.7 10.6 SSW 19.1 SSW 0.0 696.5
09:10 27.6 39.9 1021.7 11.3 SSW 21.0 SSW 0.0 720.9
09:20 27.9 39.6 1021.6 9.3 S 19.9 SSW 0.0 745.3
09:30 28.1 39.7 1021.4 10.1 SSW 21.0 S 0.0 768.9
09:40 28.3 39.3 1021.4 10.7 S 19.3 S 0.0 790.0
09:50 28.5 39.0 1021.4 9.7 SSW 20.5 SSW 0.0 811.0
10:00 28.6 38.9 1021.3 9.8 S 20.8 SSW 0.0 829.0
10:10 28.7 38.6 1021.3 10.3 SSW 20.1 SSW 0.0 847.0
10:20 29.0 38.1 1021.3 10.7 S 19.4 SSW 0.0 861.0
10:30 28.9 38.0 1021.2 9.4 SSW 20.9 SSW 0.0 875.0
10:40 29.0 38.2 1021.1 9.5 S 19.6 S 0.0 888.0
10:50 29.7 37.3 1021.1 9.7 SSW 18.8 SSW 0.0 899.0
11:00 29.3 37.7 1021.0 10.1 S 18.0 SSW 0.0 908.0
11:10 29.7 36.9 1020.9 10.3 S 20.7 SSW 0.0 916.0
11:20 30.1 36.5 1020.9 9.1 SSW 18.8 SSW 0.0 925.0
11:40 30.0 36.1 1020.7 5.1 SSE 15.3 SSW 0.0 939.0
11:50 30.7 36.1 1020.7 8.0 SSW 16.7 S 0.0 935.0
12:00 30.1 36.1 1020.5 7.4 SSW 14.2 W 0.0 938.0
12:10 30.5 36.6 1020.4 8.4 S 20.3 S 0.0 938.0
12:20 30.8 36.8 1020.4 7.6 S 20.3 SSW 0.0 934.0
12:30 30.8 38.1 1020.3 9.1 SSW 21.5 SSE 0.0 929.0
12:40 30.5 38.0 1020.2 8.7 S 17.5 SSW 0.0 920.0
12:50 30.9 39.3 1020.1 12.4 SSW 23.1 SSW 0.0 915.0
13:00 30.7 40.1 1020.0 10.7 SSW 22.7 SW 0.0 906.0
13:10 31.1 40.0 1020.0 9.8 SSW 21.8 SSW 0.0 891.0
13:20 31.1 39.7 1020.0 9.1 SSW 20.2 SW 0.0 879.0
13:30 30.4 40.3 1019.9 10.1 SSW 20.3 S 0.0 863.0
13:40 30.6 39.3 1019.8 10.8 SSW 20.2 SSW 0.0 847.0
13:50 30.6 38.5 1019.7 11.5 SSW 21.9 SSW 0.0 834.0
14:00 30.3 39.2 1019.6 11.3 SSW 24.8 S 0.0 813.0
14:10 30.5 39.9 1019.5 10.2 SSW 23.1 SSW 0.0 792.8
14:20 30.4 40.5 1019.4 10.8 SSW 27.2 SSW 0.0 772.2
14:30 30.2 42.6 1019.3 10.3 SSW 24.6 SW 0.0 748.2
14:40 29.8 44.5 1019.3 11.0 SSW 26.2 S 0.0 730.5
14:50 29.4 46.1 1019.2 12.4 SSW 24.7 SSW 0.0 706.6
15:00 29.3 46.6 1019.2 12.3 SSW 25.3 SW 0.0 673.9
15:10 29.1 46.5 1019.2 8.9 SSW 20.5 SSW 0.0 654.6
15:20 29.2 46.2 1019.1 10.1 SSW 19.3 SSW 0.0 636.1
15:30 29.1 45.9 1019.1 9.7 SW 20.7 SSW 0.0 605.8
15:40 29.0 45.7 1019.0 9.0 SW 27.4 SW 0.0 575.8
15:50 29.0 45.4 1019.0 9.8 SSW 22.0 SSW 0.0 548.5
16:00 28.8 46.3 1018.9 9.9 SSW 21.4 SSW 0.0 517.6
16:10 28.6 46.5 1018.9 9.3 SSW 19.3 SSW 0.0 485.7
16:20 28.4 46.4 1018.8 7.1 SSW 16.2 SW 0.0 458.8
16:30 28.0 47.1 1018.8 8.1 SSW 20.5 SSW 0.0 428.6
16:40 28.1 46.5 1018.7 7.9 SSW 14.6 SSW 0.0 398.2
16:50 27.6 47.2 1018.7 8.3 SSW 15.4 SSW 0.0 365.6
17:00 27.5 48.1 1018.7 7.0 SSW 17.3 S 0.0 336.0
17:10 27.2 48.8 1018.7 7.6 SSW 15.8 S 0.0 305.2
17:20 26.8 50.1 1018.7 6.1 SSW 12.2 SW 0.0 273.5
17:30 26.5 51.0 1018.7 7.0 SSW 12.0 S 0.0 241.0
17:40 26.0 52.3 1018.7 4.7 SW 13.4 SW 0.0 209.2
17:50 25.5 53.5 1018.7 5.7 SW 13.4 SW 0.0 179.1
18:00 25.2 54.5 1018.8 6.2 SSW 14.3 SSW 0.0 78.9
18:10 24.9 56.0 1018.8 5.5 SSW 13.5 SW 0.0 40.2
18:20 24.6 57.3 1018.8 4.7 SSW 10.4 SSE 0.0 35.3
18:30 24.3 58.5 1018.9 3.6 SW 7.2 SSW 0.0 30.7
18:40 24.1 59.6 1019.0 4.5 SSW 8.8 SW 0.0 26.0
18:50 23.8 60.7 1019.0 4.2 SSW 8.7 SSW 0.0 21.2
19:00 23.5 61.7 1019.1 5.7 S 12.0 S 0.0 16.4
19:10 23.1 63.1 1019.1 5.2 SSW 8.5 SSW 0.0 9.5
19:20 22.9 64.0 1019.1 3.1 S 8.2 SSW 0.0 4.0
19:30 22.6 64.9 1019.1 5.0 S 8.8 S 0.0 1.6
19:40 22.3 66.0 1019.1 3.7 S 8.2 S 0.0 0.5
19:50 22.1 67.0 1019.1 3.3 S 5.2 S 0.0 0.1
20:00 22.0 67.3 1019.2 2.1 SSE 4.0 SSE 0.0 0.0
20:10 21.8 67.9 1019.2 2.5 SSE 4.1 SE 0.0 0.0
20:20 21.7 68.2 1019.2 2.8 SE 4.7 SE 0.0 0.0
20:30 21.7 68.6 1019.2 3.0 SE 5.5 SE 0.0 0.0
20:40 21.7 69.3 1019.2 3.0 ESE 6.4 ESE 0.0 0.0
20:50 22.0 68.7 1019.2 2.4 SE 6.0 SE 0.0 0.0
21:00 22.1 68.2 1019.3 1.3 SSE 3.9 SE 0.0 0.0
21:10 21.9 68.8 1019.3 0.2 SSE 1.4 SSE 0.0 0.0
21:20 21.8 69.0 1019.3 0.5 S 2.7 S 0.0 0.0
21:30 21.6 69.3 1019.3 0.1 SSE 1.8 S 0.0 0.0
21:40 21.4 70.3 1019.2 0.3 ENE 2.0 NE 0.0 0.0
21:50 21.4 70.4 1019.2 0.2 SE 2.5 SE 0.0 0.0
22:00 21.4 70.2 1019.2 0.3 SSE 2.5 ENE 0.0 0.0
22:10 21.7 69.0 1019.2 1.1 ESE 5.6 E 0.0 0.0
22:20 21.8 68.3 1019.2 1.0 E 3.3 E 0.0 0.0
22:30 21.7 68.5 1019.1 2.3 ESE 6.2 SE 0.0 0.0
Máxima 31.1 71.7 1022.6 12.8 SSE 27.4 SW 0.0 939.0
Mínima 19.8 36.1 1018.7
Total 0.0